sensor_id;sensor_type;location;lat;lon;timestamp;pressure;altitude;pressure_sealevel;temperature;humidity
67818;BME280;54614;47.576;7.524;2023-01-28T00:01:14;98945.31;;;22.78;31.61
67818;BME280;54614;47.576;7.524;2023-01-28T00:03:40;98944.31;;;22.79;31.44
67818;BME280;54614;47.576;7.524;2023-01-28T00:06:11;98939.13;;;22.78;31.59
67818;BME280;54614;47.576;7.524;2023-01-28T00:08:38;98941.25;;;22.82;31.44
67818;BME280;54614;47.576;7.524;2023-01-28T00:11:06;98937.13;;;22.80;31.59
67818;BME280;54614;47.576;7.524;2023-01-28T00:13:33;98930.72;;;22.81;31.71
67818;BME280;54614;47.576;7.524;2023-01-28T00:16:02;98927.56;;;22.77;31.46
67818;BME280;54614;47.576;7.524;2023-01-28T00:18:30;98926.94;;;22.75;31.63
67818;BME280;54614;47.576;7.524;2023-01-28T00:21:06;98926.72;;;22.77;31.73
67818;BME280;54614;47.576;7.524;2023-01-28T00:23:35;98930.63;;;22.74;31.62
67818;BME280;54614;47.576;7.524;2023-01-28T00:26:07;98933.75;;;22.78;31.46
67818;BME280;54614;47.576;7.524;2023-01-28T00:28:34;98926.72;;;22.77;31.33
67818;BME280;54614;47.576;7.524;2023-01-28T00:31:08;98932.94;;;22.77;31.40
67818;BME280;54614;47.576;7.524;2023-01-28T00:33:35;98937.84;;;22.74;31.44
67818;BME280;54614;47.576;7.524;2023-01-28T00:36:03;98929.41;;;22.77;31.44
67818;BME280;54614;47.576;7.524;2023-01-28T00:38:32;98929.59;;;22.75;31.38
67818;BME280;54614;47.576;7.524;2023-01-28T00:41:18;98928.59;;;22.76;31.48
67818;BME280;54614;47.576;7.524;2023-01-28T00:43:47;98926.66;;;22.70;31.53
67818;BME280;54614;47.576;7.524;2023-01-28T00:46:14;98927.69;;;22.69;31.38
67818;BME280;54614;47.576;7.524;2023-01-28T00:48:42;98919.84;;;22.68;31.62
67818;BME280;54614;47.576;7.524;2023-01-28T00:51:10;98921.31;;;22.70;31.50
67818;BME280;54614;47.576;7.524;2023-01-28T00:53:37;98922.78;;;22.73;31.19
67818;BME280;54614;47.576;7.524;2023-01-28T00:56:06;98931.66;;;22.73;31.48
67818;BME280;54614;47.576;7.524;2023-01-28T00:58:33;98931.66;;;22.73;31.41
67818;BME280;54614;47.576;7.524;2023-01-28T01:01:23;98923.34;;;22.68;31.36
67818;BME280;54614;47.576;7.524;2023-01-28T01:03:50;98923.72;;;22.65;31.52
67818;BME280;54614;47.576;7.524;2023-01-28T01:06:23;98931.19;;;22.70;31.30
67818;BME280;54614;47.576;7.524;2023-01-28T01:08:50;98922.31;;;22.69;31.43
67818;BME280;54614;47.576;7.524;2023-01-28T01:11:17;98922.97;;;22.71;31.38
67818;BME280;54614;47.576;7.524;2023-01-28T01:13:43;98930.00;;;22.72;31.33
67818;BME280;54614;47.576;7.524;2023-01-28T01:16:12;98931.38;;;22.68;31.16
67818;BME280;54614;47.576;7.524;2023-01-28T01:18:39;98930.31;;;22.63;31.37
67818;BME280;54614;47.576;7.524;2023-01-28T01:21:28;98936.56;;;22.70;31.50
67818;BME280;54614;47.576;7.524;2023-01-28T01:23:54;98935.34;;;22.72;31.33
67818;BME280;54614;47.576;7.524;2023-01-28T01:26:21;98936.94;;;22.67;31.43
67818;BME280;54614;47.576;7.524;2023-01-28T01:28:47;98928.91;;;22.67;31.32
67818;BME280;54614;47.576;7.524;2023-01-28T01:31:17;98934.06;;;22.68;31.23
67818;BME280;54614;47.576;7.524;2023-01-28T01:33:45;98935.28;;;22.66;31.23
67818;BME280;54614;47.576;7.524;2023-01-28T01:36:13;98928.91;;;22.67;31.29
67818;BME280;54614;47.576;7.524;2023-01-28T01:38:40;98934.25;;;22.67;31.07
67818;BME280;54614;47.576;7.524;2023-01-28T01:41:08;98926.41;;;22.65;31.27
67818;BME280;54614;47.576;7.524;2023-01-28T01:43:59;98924.56;;;22.66;31.16
67818;BME280;54614;47.576;7.524;2023-01-28T01:46:47;98934.91;;;22.69;31.25
67818;BME280;54614;47.576;7.524;2023-01-28T01:49:24;98927.63;;;22.63;31.22
67818;BME280;54614;47.576;7.524;2023-01-28T01:51:57;98928.63;;;22.62;31.30
67818;BME280;54614;47.576;7.524;2023-01-28T01:54:29;98922.06;;;22.64;31.18
67818;BME280;54614;47.576;7.524;2023-01-28T01:56:58;98920.59;;;22.62;31.30
67818;BME280;54614;47.576;7.524;2023-01-28T01:59:30;98923.91;;;22.64;31.20
67818;BME280;54614;47.576;7.524;2023-01-28T02:02:02;98926.78;;;22.62;30.99
67818;BME280;54614;47.576;7.524;2023-01-28T02:04:40;98932.53;;;22.59;31.07
67818;BME280;54614;47.576;7.524;2023-01-28T02:07:08;98932.09;;;22.56;31.28
67818;BME280;54614;47.576;7.524;2023-01-28T02:09:36;98925.50;;;22.58;31.16
67818;BME280;54614;47.576;7.524;2023-01-28T02:12:20;98934.38;;;22.59;31.15
67818;BME280;54614;47.576;7.524;2023-01-28T02:15:00;98924.88;;;22.56;31.00
67818;BME280;54614;47.576;7.524;2023-01-28T02:17:28;98923.84;;;22.57;31.05
67818;BME280;54614;47.576;7.524;2023-01-28T02:20:00;98920.72;;;22.54;31.25
67818;BME280;54614;47.576;7.524;2023-01-28T02:28:59;98934.50;;;22.50;31.15
67818;BME280;54614;47.576;7.524;2023-01-28T02:37:03;98934.50;;;22.50;30.95
67818;BME280;54614;47.576;7.524;2023-01-28T02:39:41;98929.72;;;22.46;31.29
67818;BME280;54614;47.576;7.524;2023-01-28T02:42:16;98930.53;;;22.46;31.25
67818;BME280;54614;47.576;7.524;2023-01-28T02:44:43;98941.06;;;22.48;30.92
67818;BME280;54614;47.576;7.524;2023-01-28T02:47:12;98930.53;;;22.46;31.13
67818;BME280;54614;47.576;7.524;2023-01-28T02:50:03;98938.31;;;22.41;31.30
67818;BME280;54614;47.576;7.524;2023-01-28T02:53:07;98930.91;;;22.43;30.88
67818;BME280;54614;47.576;7.524;2023-01-28T02:56:32;98926.78;;;22.41;31.20
67818;BME280;54614;47.576;7.524;2023-01-28T03:02:29;98932.97;;;22.41;31.28
67818;BME280;54614;47.576;7.524;2023-01-28T03:05:04;98933.53;;;22.37;31.24
67818;BME280;54614;47.576;7.524;2023-01-28T03:07:35;98935.38;;;22.36;31.31
67818;BME280;54614;47.576;7.524;2023-01-28T03:10:08;98944.25;;;22.37;30.95
67818;BME280;54614;47.576;7.524;2023-01-28T03:12:41;98935.56;;;22.35;30.97
67818;BME280;54614;47.576;7.524;2023-01-28T03:15:36;98935.13;;;22.31;31.20
67818;BME280;54614;47.576;7.524;2023-01-28T03:18:30;98928.72;;;22.32;30.93
67818;BME280;54614;47.576;7.524;2023-01-28T03:21:30;98931.41;;;22.32;31.07
67818;BME280;54614;47.576;7.524;2023-01-28T03:24:24;98935.50;;;22.28;31.21
67818;BME280;54614;47.576;7.524;2023-01-28T03:27:32;98926.44;;;22.29;31.13
67818;BME280;54614;47.576;7.524;2023-01-28T03:30:27;98931.34;;;22.26;31.11
67818;BME280;54614;47.576;7.524;2023-01-28T03:33:14;98937.25;;;22.21;31.20
67818;BME280;54614;47.576;7.524;2023-01-28T03:36:00;98944.47;;;22.21;31.02
67818;BME280;54614;47.576;7.524;2023-01-28T03:38:45;98947.78;;;22.23;31.14
67818;BME280;54614;47.576;7.524;2023-01-28T03:41:21;98946.78;;;22.24;31.08
67818;BME280;54614;47.576;7.524;2023-01-28T03:43:48;98944.28;;;22.22;31.14
67818;BME280;54614;47.576;7.524;2023-01-28T03:46:14;98944.66;;;22.19;31.26
67818;BME280;54614;47.576;7.524;2023-01-28T03:48:40;98945.28;;;22.21;31.06
67818;BME280;54614;47.576;7.524;2023-01-28T03:51:06;98943.81;;;22.18;31.16
67818;BME280;54614;47.576;7.524;2023-01-28T03:53:32;98951.22;;;22.16;31.11
67818;BME280;54614;47.576;7.524;2023-01-28T03:55:58;98950.38;;;22.16;31.17
67818;BME280;54614;47.576;7.524;2023-01-28T03:58:24;98950.38;;;22.16;30.94
67818;BME280;54614;47.576;7.524;2023-01-28T04:00:54;98950.38;;;22.16;30.88
67818;BME280;54614;47.576;7.524;2023-01-28T04:03:20;98954.47;;;22.12;31.03
67818;BME280;54614;47.576;7.524;2023-01-28T04:05:59;98956.03;;;22.06;31.31
67818;BME280;54614;47.576;7.524;2023-01-28T04:08:26;98955.19;;;22.06;31.19
67818;BME280;54614;47.576;7.524;2023-01-28T04:10:52;98955.19;;;22.06;31.14
67818;BME280;54614;47.576;7.524;2023-01-28T04:13:18;98959.53;;;22.07;30.98
67818;BME280;54614;47.576;7.524;2023-01-28T04:15:44;98959.59;;;21.99;30.76
67818;BME280;54614;47.576;7.524;2023-01-28T04:18:11;98956.22;;;22.05;30.95
67818;BME280;54614;47.576;7.524;2023-01-28T04:20:37;98957.03;;;22.05;30.73
67818;BME280;54614;47.576;7.524;2023-01-28T04:23:05;98954.75;;;22.02;30.71
67818;BME280;54614;47.576;7.524;2023-01-28T04:25:32;98950.69;;;22.06;30.74
67818;BME280;54614;47.576;7.524;2023-01-28T04:27:58;98960.56;;;22.06;30.62
67818;BME280;54614;47.576;7.524;2023-01-28T04:30:25;98959.34;;;22.08;30.61
67818;BME280;54614;47.576;7.524;2023-01-28T04:32:50;98967.56;;;22.07;30.70
67818;BME280;54614;47.576;7.524;2023-01-28T04:35:17;98967.75;;;22.05;30.69
67818;BME280;54614;47.576;7.524;2023-01-28T04:37:44;98965.91;;;22.06;30.63
67818;BME280;54614;47.576;7.524;2023-01-28T04:40:11;98974.41;;;22.09;32.02
67818;BME280;54614;47.576;7.524;2023-01-28T04:42:38;98975.16;;;22.18;32.93
67818;BME280;54614;47.576;7.524;2023-01-28T04:45:05;98974.56;;;21.93;33.12
67818;BME280;54614;47.576;7.524;2023-01-28T04:47:31;98970.88;;;21.79;32.32
67818;BME280;54614;47.576;7.524;2023-01-28T04:49:57;98976.88;;;21.81;31.76
67818;BME280;54614;47.576;7.524;2023-01-28T04:52:23;98971.72;;;21.95;31.85
67818;BME280;54614;47.576;7.524;2023-01-28T04:54:48;98975.50;;;22.00;31.53
67818;BME280;54614;47.576;7.524;2023-01-28T04:57:14;98970.81;;;22.02;31.51
67818;BME280;54614;47.576;7.524;2023-01-28T04:59:41;98977.16;;;22.01;31.29
67818;BME280;54614;47.576;7.524;2023-01-28T05:02:07;98980.03;;;22.00;31.50
67818;BME280;54614;47.576;7.524;2023-01-28T05:04:33;98981.22;;;21.97;31.29
67818;BME280;54614;47.576;7.524;2023-01-28T05:06:59;98983.91;;;21.97;30.97
67818;BME280;54614;47.576;7.524;2023-01-28T05:09:25;98980.56;;;21.95;31.20
67818;BME280;54614;47.576;7.524;2023-01-28T05:11:50;98991.00;;;21.90;31.11
67818;BME280;54614;47.576;7.524;2023-01-28T05:14:16;98986.41;;;21.99;31.08
67818;BME280;54614;47.576;7.524;2023-01-28T05:16:42;98992.50;;;21.93;31.13
67818;BME280;54614;47.576;7.524;2023-01-28T05:19:08;98996.19;;;21.92;31.23
67818;BME280;54614;47.576;7.524;2023-01-28T05:21:34;98999.03;;;21.90;30.99
67818;BME280;54614;47.576;7.524;2023-01-28T05:24:00;98997.19;;;21.91;31.00
67818;BME280;54614;47.576;7.524;2023-01-28T05:26:25;98993.69;;;21.90;31.08
67818;BME280;54614;47.576;7.524;2023-01-28T05:28:52;99004.94;;;21.85;30.94
67818;BME280;54614;47.576;7.524;2023-01-28T05:31:18;99000.16;;;21.81;31.13
67818;BME280;54614;47.576;7.524;2023-01-28T05:33:44;98999.59;;;21.85;30.83
67818;BME280;54614;47.576;7.524;2023-01-28T05:36:10;99002.28;;;21.85;31.01
67818;BME280;54614;47.576;7.524;2023-01-28T05:38:35;99002.09;;;21.87;30.96
67818;BME280;54614;47.576;7.524;2023-01-28T05:41:01;98996.72;;;21.87;30.94
67818;BME280;54614;47.576;7.524;2023-01-28T05:43:27;98994.88;;;21.87;31.01
67818;BME280;54614;47.576;7.524;2023-01-28T05:45:53;99003.47;;;21.83;30.88
67818;BME280;54614;47.576;7.524;2023-01-28T05:48:19;99004.22;;;21.77;31.06
67818;BME280;54614;47.576;7.524;2023-01-28T05:50:48;99016.22;;;21.81;31.00
67818;BME280;54614;47.576;7.524;2023-01-28T05:53:14;99010.22;;;21.79;31.15
67818;BME280;54614;47.576;7.524;2023-01-28T05:55:40;99017.03;;;21.81;30.78
67818;BME280;54614;47.576;7.524;2023-01-28T05:58:06;99013.25;;;21.76;30.98
67818;BME280;54614;47.576;7.524;2023-01-28T06:00:32;99010.84;;;21.81;30.94
67818;BME280;54614;47.576;7.524;2023-01-28T06:02:58;99011.88;;;21.80;30.86
67818;BME280;54614;47.576;7.524;2023-01-28T06:05:24;99012.06;;;21.78;30.88
67818;BME280;54614;47.576;7.524;2023-01-28T06:07:50;99017.41;;;21.78;30.87
67818;BME280;54614;47.576;7.524;2023-01-28T06:10:16;99022.31;;;21.75;31.02
67818;BME280;54614;47.576;7.524;2023-01-28T06:12:43;99024.16;;;21.74;30.86
67818;BME280;54614;47.576;7.524;2023-01-28T06:15:09;99021.09;;;21.77;30.92
67818;BME280;54614;47.576;7.524;2023-01-28T06:17:35;99023.97;;;21.76;30.89
67818;BME280;54614;47.576;7.524;2023-01-28T06:20:01;99018.72;;;21.82;31.16
67818;BME280;54614;47.576;7.524;2023-01-28T06:22:27;99022.69;;;21.86;31.58
67818;BME280;54614;47.576;7.524;2023-01-28T06:24:53;99026.94;;;21.96;31.70
67818;BME280;54614;47.576;7.524;2023-01-28T06:27:19;99024.88;;;21.68;31.56
67818;BME280;54614;47.576;7.524;2023-01-28T06:29:45;99031.56;;;21.87;31.44
67818;BME280;54614;47.576;7.524;2023-01-28T06:32:11;99031.91;;;21.84;31.29
67818;BME280;54614;47.576;7.524;2023-01-28T06:34:37;99036.63;;;21.82;31.43
67818;BME280;54614;47.576;7.524;2023-01-28T06:37:03;99030.97;;;21.77;31.28
67818;BME280;54614;47.576;7.524;2023-01-28T06:39:30;99039.84;;;21.77;31.35
67818;BME280;54614;47.576;7.524;2023-01-28T06:41:59;99038.00;;;21.78;31.31
67818;BME280;54614;47.576;7.524;2023-01-28T06:44:25;99042.72;;;21.76;31.00
67818;BME280;54614;47.576;7.524;2023-01-28T06:46:51;99045.38;;;21.76;31.14
67818;BME280;54614;47.576;7.524;2023-01-28T06:49:17;99044.56;;;21.75;31.27
67818;BME280;54614;47.576;7.524;2023-01-28T06:51:43;99050.56;;;21.77;31.04
67818;BME280;54614;47.576;7.524;2023-01-28T06:54:08;99052.78;;;21.74;31.22
67818;BME280;54614;47.576;7.524;2023-01-28T06:56:34;99058.50;;;21.71;31.31
67818;BME280;54614;47.576;7.524;2023-01-28T06:59:00;99052.41;;;21.77;31.59
67818;BME280;54614;47.576;7.524;2023-01-28T07:01:26;99061.38;;;21.46;32.43
67818;BME280;54614;47.576;7.524;2023-01-28T07:03:54;99063.22;;;21.23;33.69
67818;BME280;54614;47.576;7.524;2023-01-28T07:06:20;99067.81;;;21.06;33.97
67818;BME280;54614;47.576;7.524;2023-01-28T07:08:46;99065.31;;;21.05;33.97
67818;BME280;54614;47.576;7.524;2023-01-28T07:11:12;99065.50;;;21.03;34.26
67818;BME280;54614;47.576;7.524;2023-01-28T07:13:38;99066.50;;;21.02;34.54
67818;BME280;54614;47.576;7.524;2023-01-28T07:16:05;99074.06;;;20.99;34.37
67818;BME280;54614;47.576;7.524;2023-01-28T07:18:31;99063.22;;;20.92;34.55
67818;BME280;54614;47.576;7.524;2023-01-28T07:20:57;99066.09;;;20.90;34.62
67818;BME280;54614;47.576;7.524;2023-01-28T07:23:23;99070.06;;;20.95;34.35
67818;BME280;54614;47.576;7.524;2023-01-28T07:25:49;99075.44;;;21.17;33.82
67818;BME280;54614;47.576;7.524;2023-01-28T07:28:15;99079.34;;;21.38;32.55
67818;BME280;54614;47.576;7.524;2023-01-28T07:30:48;99073.63;;;21.41;32.26
67818;BME280;54614;47.576;7.524;2023-01-28T07:33:14;99079.78;;;21.64;31.86
67818;BME280;54614;47.576;7.524;2023-01-28T07:35:40;99079.72;;;21.72;31.39
67818;BME280;54614;47.576;7.524;2023-01-28T07:38:06;99081.31;;;21.81;31.34
67818;BME280;54614;47.576;7.524;2023-01-28T07:40:32;99089.06;;;21.76;31.30
67818;BME280;54614;47.576;7.524;2023-01-28T07:42:57;99079.19;;;21.77;31.32
67818;BME280;54614;47.576;7.524;2023-01-28T07:45:24;99086.81;;;21.65;31.53
67818;BME280;54614;47.576;7.524;2023-01-28T07:48:03;99079.97;;;21.63;32.41
67818;BME280;54614;47.576;7.524;2023-01-28T07:50:32;99091.19;;;21.43;33.09
67818;BME280;54614;47.576;7.524;2023-01-28T07:53:01;99089.44;;;21.50;32.73
67818;BME280;54614;47.576;7.524;2023-01-28T07:55:28;99092.66;;;21.69;32.94
67818;BME280;54614;47.576;7.524;2023-01-28T07:57:58;99085.47;;;21.46;33.37
67818;BME280;54614;47.576;7.524;2023-01-28T08:00:27;99094.09;;;21.34;33.73
67818;BME280;54614;47.576;7.524;2023-01-28T08:02:59;99093.78;;;21.29;34.00
67818;BME280;54614;47.576;7.524;2023-01-28T08:05:38;99093.72;;;21.37;33.53
67818;BME280;54614;47.576;7.524;2023-01-28T08:08:07;99093.06;;;21.35;33.95
67818;BME280;54614;47.576;7.524;2023-01-28T08:10:33;99106.50;;;21.49;34.30
67818;BME280;54614;47.576;7.524;2023-01-28T08:12:59;99105.81;;;21.55;33.93
67818;BME280;54614;47.576;7.524;2023-01-28T08:15:25;99093.50;;;21.84;32.76
67818;BME280;54614;47.576;7.524;2023-01-28T08:17:54;99103.00;;;22.09;32.52
67818;BME280;54614;47.576;7.524;2023-01-28T08:20:21;99105.41;;;22.19;32.13
67818;BME280;54614;47.576;7.524;2023-01-28T08:22:47;99109.47;;;22.15;32.02
67818;BME280;54614;47.576;7.524;2023-01-28T08:25:13;99115.88;;;22.29;31.94
67818;BME280;54614;47.576;7.524;2023-01-28T08:27:39;99120.13;;;22.23;31.97
67818;BME280;54614;47.576;7.524;2023-01-28T08:30:05;99116.22;;;22.26;32.06
67818;BME280;54614;47.576;7.524;2023-01-28T08:32:31;99126.03;;;22.33;31.65
67818;BME280;54614;47.576;7.524;2023-01-28T08:34:58;99118.00;;;22.33;33.46
67818;BME280;54614;47.576;7.524;2023-01-28T08:37:24;99122.50;;;22.18;35.55
67818;BME280;54614;47.576;7.524;2023-01-28T08:39:50;99120.97;;;22.38;32.56
67818;BME280;54614;47.576;7.524;2023-01-28T08:42:16;99133.25;;;22.47;32.64
67818;BME280;54614;47.576;7.524;2023-01-28T08:44:42;99132.69;;;22.52;32.30
67818;BME280;54614;47.576;7.524;2023-01-28T08:47:07;99141.09;;;22.49;33.62
67818;BME280;54614;47.576;7.524;2023-01-28T08:49:33;99142.03;;;22.41;35.33
67818;BME280;54614;47.576;7.524;2023-01-28T08:51:59;99140.38;;;22.40;35.24
67818;BME280;54614;47.576;7.524;2023-01-28T08:54:25;99153.59;;;22.42;35.01
67818;BME280;54614;47.576;7.524;2023-01-28T08:56:51;99146.19;;;22.44;39.30
67818;BME280;54614;47.576;7.524;2023-01-28T08:59:17;99153.03;;;22.32;37.54
67818;BME280;54614;47.576;7.524;2023-01-28T09:01:43;99153.19;;;22.15;35.89
67818;BME280;54614;47.576;7.524;2023-01-28T09:04:09;99146.63;;;22.18;36.68
67818;BME280;54614;47.576;7.524;2023-01-28T09:06:35;99150.88;;;22.12;35.76
67818;BME280;54614;47.576;7.524;2023-01-28T09:09:01;99153.94;;;22.24;32.78
67818;BME280;54614;47.576;7.524;2023-01-28T09:11:28;99155.78;;;22.24;32.36
67818;BME280;54614;47.576;7.524;2023-01-28T09:13:57;99159.22;;;22.32;40.09
67818;BME280;54614;47.576;7.524;2023-01-28T09:16:23;99152.84;;;22.33;35.83
67818;BME280;54614;47.576;7.524;2023-01-28T09:18:49;99157.47;;;22.54;32.79
67818;BME280;54614;47.576;7.524;2023-01-28T09:21:16;99163.22;;;22.66;31.25
67818;BME280;54614;47.576;7.524;2023-01-28T09:23:42;99148.59;;;22.68;30.78
67818;BME280;54614;47.576;7.524;2023-01-28T09:26:09;99150.25;;;22.69;30.36
67818;BME280;54614;47.576;7.524;2023-01-28T09:28:35;99156.66;;;22.68;30.77
67818;BME280;54614;47.576;7.524;2023-01-28T09:31:08;99162.66;;;22.70;30.77
67818;BME280;54614;47.576;7.524;2023-01-28T09:33:37;99165.34;;;22.70;30.73
67818;BME280;54614;47.576;7.524;2023-01-28T09:36:07;99170.44;;;22.80;30.80
67818;BME280;54614;47.576;7.524;2023-01-28T09:38:33;99166.06;;;22.79;30.83
67818;BME280;54614;47.576;7.524;2023-01-28T09:41:01;99168.03;;;22.85;30.80
67818;BME280;54614;47.576;7.524;2023-01-28T09:46:33;99166.00;;;22.87;31.12
67818;BME280;54614;47.576;7.524;2023-01-28T09:49:11;99163.78;;;22.91;31.03
67818;BME280;54614;47.576;7.524;2023-01-28T09:51:47;99163.22;;;22.95;31.09
67818;BME280;54614;47.576;7.524;2023-01-28T09:54:41;99168.22;;;22.98;30.99
67818;BME280;54614;47.576;7.524;2023-01-28T09:57:25;99172.75;;;22.98;31.27
67818;BME280;54614;47.576;7.524;2023-01-28T09:59:53;99179.13;;;22.97;31.08
67818;BME280;54614;47.576;7.524;2023-01-28T10:05:16;99168.28;;;23.05;31.28
67818;BME280;54614;47.576;7.524;2023-01-28T10:08:26;99165.50;;;23.13;31.05
67818;BME280;54614;47.576;7.524;2023-01-28T10:11:13;99160.97;;;23.13;31.15
67818;BME280;54614;47.576;7.524;2023-01-28T10:16:45;99153.81;;;23.21;31.05
67818;BME280;54614;47.576;7.524;2023-01-28T10:19:21;99159.47;;;23.26;31.10
67818;BME280;54614;47.576;7.524;2023-01-28T10:21:59;99159.91;;;23.29;31.21
67818;BME280;54614;47.576;7.524;2023-01-28T10:24:47;99154.16;;;23.32;31.41
67818;BME280;54614;47.576;7.524;2023-01-28T10:27:22;99158.50;;;23.33;31.53
67818;BME280;54614;47.576;7.524;2023-01-28T10:29:50;99164.25;;;23.30;31.43
67818;BME280;54614;47.576;7.524;2023-01-28T10:32:37;99165.53;;;23.34;31.52
67818;BME280;54614;47.576;7.524;2023-01-28T10:35:08;99162.94;;;23.41;31.34
67818;BME280;54614;47.576;7.524;2023-01-28T10:37:36;99159.97;;;23.36;31.15
67818;BME280;54614;47.576;7.524;2023-01-28T10:40:03;99166.00;;;23.38;31.36
67818;BME280;54614;47.576;7.524;2023-01-28T10:42:35;99151.16;;;23.42;31.39
67818;BME280;54614;47.576;7.524;2023-01-28T10:45:30;99163.50;;;23.36;31.19
67818;BME280;54614;47.576;7.524;2023-01-28T10:51:13;99152.56;;;23.38;31.82
67818;BME280;54614;47.576;7.524;2023-01-28T10:53:44;99158.84;;;23.45;32.12
67818;BME280;54614;47.576;7.524;2023-01-28T10:56:32;99153.66;;;23.43;32.72
67818;BME280;54614;47.576;7.524;2023-01-28T10:59:19;99150.34;;;23.41;32.86
67818;BME280;54614;47.576;7.524;2023-01-28T11:01:57;99144.13;;;23.41;32.68
67818;BME280;54614;47.576;7.524;2023-01-28T11:04:26;99147.47;;;23.43;32.34
67818;BME280;54614;47.576;7.524;2023-01-28T11:09:32;99131.16;;;23.44;32.28
67818;BME280;54614;47.576;7.524;2023-01-28T11:12:29;99132.25;;;23.50;32.26
67818;BME280;54614;47.576;7.524;2023-01-28T11:15:01;99131.03;;;23.53;33.15
67818;BME280;54614;47.576;7.524;2023-01-28T11:17:38;99131.53;;;23.56;32.88
67818;BME280;54614;47.576;7.524;2023-01-28T11:20:19;99141.88;;;23.59;32.49
67818;BME280;54614;47.576;7.524;2023-01-28T11:22:47;99135.38;;;23.54;32.22
67818;BME280;54614;47.576;7.524;2023-01-28T11:25:44;99142.06;;;23.58;32.26
67818;BME280;54614;47.576;7.524;2023-01-28T11:28:18;99137.53;;;23.58;31.99
67818;BME280;54614;47.576;7.524;2023-01-28T11:30:52;99149.50;;;23.56;31.93
67818;BME280;54614;47.576;7.524;2023-01-28T11:33:30;99136.06;;;23.56;31.99
67818;BME280;54614;47.576;7.524;2023-01-28T11:36:13;99143.28;;;23.55;32.08
67818;BME280;54614;47.576;7.524;2023-01-28T11:41:15;99135.69;;;23.59;32.36
67818;BME280;54614;47.576;7.524;2023-01-28T11:43:42;99128.25;;;23.61;32.17
67818;BME280;54614;47.576;7.524;2023-01-28T11:55:03;99138.59;;;23.42;31.25
67818;BME280;54614;47.576;7.524;2023-01-28T12:03:50;99133.47;;;23.47;31.61
67818;BME280;54614;47.576;7.524;2023-01-28T12:09:34;99134.44;;;23.40;31.68
67818;BME280;54614;47.576;7.524;2023-01-28T12:14:56;99137.63;;;23.50;31.58
67818;BME280;54614;47.576;7.524;2023-01-28T12:18:01;99137.25;;;23.53;31.40
67818;BME280;54614;47.576;7.524;2023-01-28T12:20:51;99138.25;;;23.52;31.07
67818;BME280;54614;47.576;7.524;2023-01-28T12:29:34;99136.19;;;22.97;32.38
67818;BME280;54614;47.576;7.524;2023-01-28T12:32:34;99140.56;;;22.68;32.94
67818;BME280;54614;47.576;7.524;2023-01-28T12:37:59;99133.16;;;23.00;33.09
67818;BME280;54614;47.576;7.524;2023-01-28T12:41:00;99132.00;;;23.09;32.30
67818;BME280;54614;47.576;7.524;2023-01-28T12:46:31;99146.66;;;22.77;33.06
67818;BME280;54614;47.576;7.524;2023-01-28T12:54:38;99132.56;;;23.40;31.91
67818;BME280;54614;47.576;7.524;2023-01-28T12:57:13;99134.75;;;23.52;31.71
67818;BME280;54614;47.576;7.524;2023-01-28T13:00:24;99124.66;;;23.54;31.49
67818;BME280;54614;47.576;7.524;2023-01-28T13:03:36;99136.41;;;23.53;31.63
67818;BME280;54614;47.576;7.524;2023-01-28T13:06:14;99126.88;;;23.50;31.50
67818;BME280;54614;47.576;7.524;2023-01-28T13:08:44;99141.44;;;23.56;30.95
67818;BME280;54614;47.576;7.524;2023-01-28T13:11:16;99130.41;;;23.51;31.17
67818;BME280;54614;47.576;7.524;2023-01-28T13:13:45;99131.75;;;23.40;31.43
67818;BME280;54614;47.576;7.524;2023-01-28T13:16:12;99141.72;;;23.46;30.96
67818;BME280;54614;47.576;7.524;2023-01-28T13:18:45;99145.63;;;23.43;30.75
67818;BME280;54614;47.576;7.524;2023-01-28T13:24:02;99142.09;;;23.43;31.05
67818;BME280;54614;47.576;7.524;2023-01-28T13:26:41;99145.41;;;23.45;30.45
67818;BME280;54614;47.576;7.524;2023-01-28T13:31:46;99139.03;;;23.46;30.59
67818;BME280;54614;47.576;7.524;2023-01-28T13:34:29;99142.09;;;23.43;30.22
67818;BME280;54614;47.576;7.524;2023-01-28T13:37:03;99149.25;;;23.36;30.25
67818;BME280;54614;47.576;7.524;2023-01-28T13:39:33;99148.03;;;23.38;30.37
67818;BME280;54614;47.576;7.524;2023-01-28T13:42:20;99149.81;;;23.31;30.45
67818;BME280;54614;47.576;7.524;2023-01-28T13:44:48;99156.31;;;23.22;30.32
67818;BME280;54614;47.576;7.524;2023-01-28T13:47:29;99161.22;;;23.19;30.92
67818;BME280;54614;47.576;7.524;2023-01-28T13:50:10;99160.47;;;23.25;30.60
67818;BME280;54614;47.576;7.524;2023-01-28T13:52:57;99150.13;;;23.22;30.55
67818;BME280;54614;47.576;7.524;2023-01-28T13:55:35;99156.88;;;23.18;30.48
67818;BME280;54614;47.576;7.524;2023-01-28T14:19:25;99170.53;;;23.01;30.46
67818;BME280;54614;47.576;7.524;2023-01-28T14:21:52;99171.44;;;22.94;30.38
67818;BME280;54614;47.576;7.524;2023-01-28T14:24:19;99179.59;;;23.00;30.33
67818;BME280;54614;47.576;7.524;2023-01-28T14:26:56;99169.41;;;23.10;30.32
67818;BME280;54614;47.576;7.524;2023-01-28T14:32:29;99180.22;;;23.17;30.75
67818;BME280;54614;47.576;7.524;2023-01-28T14:35:00;99186.03;;;23.21;30.50
67818;BME280;54614;47.576;7.524;2023-01-28T14:37:31;99182.97;;;23.24;30.80
67818;BME280;54614;47.576;7.524;2023-01-28T14:40:05;99184.63;;;23.25;30.58
67818;BME280;54614;47.576;7.524;2023-01-28T14:42:39;99187.13;;;23.26;30.85
67818;BME280;54614;47.576;7.524;2023-01-28T14:45:33;99186.75;;;23.29;30.72
67818;BME280;54614;47.576;7.524;2023-01-28T14:48:35;99188.22;;;23.32;30.60
67818;BME280;54614;47.576;7.524;2023-01-28T14:54:13;99193.22;;;23.35;30.79
67818;BME280;54614;47.576;7.524;2023-01-28T14:57:03;99194.50;;;23.39;30.95
67818;BME280;54614;47.576;7.524;2023-01-28T14:59:55;99200.91;;;23.38;30.79
67818;BME280;54614;47.576;7.524;2023-01-28T15:02:28;99201.53;;;23.40;30.72
67818;BME280;54614;47.576;7.524;2023-01-28T15:05:08;99198.03;;;23.39;31.02
67818;BME280;54614;47.576;7.524;2023-01-28T15:07:34;99200.53;;;23.41;30.85
67818;BME280;54614;47.576;7.524;2023-01-28T15:10:05;99203.84;;;23.43;30.96